Time;durP1;ratioP1;P1;durP2;ratioP2;P2;SDS_P1;SDS_P2;PMS_P1;PMS_P2;Temp;Humidity;BMP_temperature;BMP_pressure;BME280_temperature;BME280_humidity;BME280_pressure;Samples;Min_cycle;Max_cycle;Signal;HPM_P1;HPM_P2
2023/08/13 00:00:00;;;;;;;;;;;;;;;17.55;94.21;101607.00;10498415;28;19925;-70
2023/08/13 00:05:04;;;;;;;;;;;;;;;17.64;91.11;101610.75;10498969;28;20014;-69
2023/08/13 00:10:07;;;;;;;;;;;;;;;17.70;91.25;101591.75;10498155;28;20329;-70
2023/08/13 00:15:10;;;;;;;;;;;;;;;17.39;95.93;101601.97;10498299;28;19928;-69
2023/08/13 00:20:13;;;;;;;;;;;;;;;17.48;95.15;101592.50;10497440;28;19925;-69
2023/08/13 00:25:15;;;;;;;;;;;;;;;17.36;94.60;101598.69;10498511;28;20011;-69
2023/08/13 00:30:18;;;;;;;;;;;;;;;17.29;95.40;101594.81;10497693;28;19971;-69
2023/08/13 00:35:20;;;;;;;;;;;;;;;17.50;92.29;101592.38;10501485;28;19932;-69
2023/08/13 00:40:22;;;;;;;;;;;;;;;16.94;97.79;101596.41;10504637;28;20377;-69
2023/08/13 00:45:25;;;;;;;;;;;;;;;16.70;100.00;101596.34;10505083;28;19931;-69
2023/08/13 00:50:27;;;;;;;;;;;;;;;16.66;100.00;101606.28;10505179;28;19931;-69
2023/08/13 00:55:30;;;;;;;;;;;;;;;16.57;100.00;101593.69;10505187;28;19932;-69
2023/08/13 01:00:32;;;;;;;;;;;;;;;16.51;100.00;101589.69;10504818;28;20008;-69
2023/08/13 01:05:34;;;;;;;;;;;;;;;16.62;100.00;101591.56;10504859;28;19925;-69
2023/08/13 01:10:37;;;;;;;;;;;;;;;16.42;100.00;101594.78;10505369;28;19925;-69
2023/08/13 01:15:40;;;;;;;;;;;;;;;16.64;100.00;101587.03;10505043;28;20055;-69
2023/08/13 01:20:43;;;;;;;;;;;;;;;16.67;100.00;101592.09;10503450;28;20322;-69
2023/08/13 01:25:51;;;;;;;;;;;;;;;16.67;99.84;101584.16;10503892;28;19924;-69
2023/08/13 01:30:58;;;;;;;;;;;;;;;17.03;100.00;101581.66;10502629;28;19978;-69
2023/08/13 01:36:01;;;;;;;;;;;;;;;17.14;97.89;101580.91;10503145;28;19928;-70
2023/08/13 01:41:03;;;;;;;;;;;;;;;17.07;96.89;101581.34;10502953;28;19931;-70
2023/08/13 01:46:05;;;;;;;;;;;;;;;17.15;94.82;101583.44;10503519;28;19967;-70
2023/08/13 01:51:08;;;;;;;;;;;;;;;17.16;95.90;101597.50;10502992;28;20282;-69
2023/08/13 01:56:10;;;;;;;;;;;;;;;17.17;94.16;101593.91;10503508;28;19958;-70
2023/08/13 02:01:12;;;;;;;;;;;;;;;16.87;97.36;101595.16;10503022;28;20257;-69
2023/08/13 02:06:14;;;;;;;;;;;;;;;16.95;97.56;101594.63;10502570;28;20019;-69
2023/08/13 02:11:17;;;;;;;;;;;;;;;16.94;97.70;101599.06;10502849;28;19931;-69
2023/08/13 02:16:19;;;;;;;;;;;;;;;16.80;98.80;101597.38;10502902;28;19932;-69
2023/08/13 02:21:21;;;;;;;;;;;;;;;16.77;98.17;101591.47;10501838;28;19924;-69
2023/08/13 02:26:23;;;;;;;;;;;;;;;16.77;100.00;101594.94;10500555;28;19930;-70
2023/08/13 02:31:26;;;;;;;;;;;;;;;16.94;97.41;101583.19;10501984;28;19931;-70
2023/08/13 02:36:28;;;;;;;;;;;;;;;17.08;96.06;101588.34;10501290;28;19925;-69
2023/08/13 02:41:30;;;;;;;;;;;;;;;16.94;97.34;101588.47;10501655;28;20002;-70
2023/08/13 02:46:32;;;;;;;;;;;;;;;16.89;96.28;101582.66;10501495;28;19924;-70
2023/08/13 02:51:35;;;;;;;;;;;;;;;16.85;98.71;101583.84;10500513;28;20042;-70
2023/08/13 02:56:37;;;;;;;;;;;;;;;16.77;97.26;101575.59;10499528;28;19925;-70
2023/08/13 03:01:39;;;;;;;;;;;;;;;16.67;98.47;101581.50;10499725;28;19929;-70
2023/08/13 03:06:42;;;;;;;;;;;;;;;16.64;99.18;101589.69;10500719;28;19960;-70
2023/08/13 03:11:44;;;;;;;;;;;;;;;16.71;100.00;101585.66;10499766;28;19924;-69
2023/08/13 03:16:46;;;;;;;;;;;;;;;16.79;99.44;101578.97;10500320;28;19928;-69
2023/08/13 03:21:48;;;;;;;;;;;;;;;16.59;99.52;101586.50;10499314;28;19924;-70
2023/08/13 03:26:51;;;;;;;;;;;;;;;16.57;100.00;101590.22;10499317;28;20008;-70
2023/08/13 03:31:53;;;;;;;;;;;;;;;16.40;100.00;101588.75;10499685;28;19924;-70
2023/08/13 03:36:55;;;;;;;;;;;;;;;16.52;100.00;101588.75;10499656;28;19925;-70
2023/08/13 03:41:57;;;;;;;;;;;;;;;16.66;100.00;101582.50;10498852;28;20019;-69
2023/08/13 03:47:00;;;;;;;;;;;;;;;16.72;100.00;101583.84;10498746;28;19963;-70
2023/08/13 03:52:02;;;;;;;;;;;;;;;16.63;100.00;101581.88;10498585;28;19924;-70
2023/08/13 03:57:05;;;;;;;;;;;;;;;16.51;100.00;101583.56;10498813;28;19928;-69
2023/08/13 04:02:07;;;;;;;;;;;;;;;16.55;100.00;101592.97;10498374;28;19970;-70
2023/08/13 04:07:09;;;;;;;;;;;;;;;16.44;100.00;101585.81;10499112;28;20019;-69
2023/08/13 04:12:12;;;;;;;;;;;;;;;16.40;100.00;101586.13;10497993;28;19925;-69
2023/08/13 04:17:14;;;;;;;;;;;;;;;16.35;100.00;101586.41;10498721;28;19924;-70
2023/08/13 04:22:16;;;;;;;;;;;;;;;15.87;100.00;101589.69;10497973;28;20019;-69
2023/08/13 04:27:20;;;;;;;;;;;;;;;16.14;100.00;101600.16;10497859;28;19928;-69
2023/08/13 04:32:22;;;;;;;;;;;;;;;16.14;100.00;101608.09;10496681;28;19931;-69
2023/08/13 04:37:24;;;;;;;;;;;;;;;16.22;100.00;101601.44;10498382;28;19929;-69
2023/08/13 04:42:28;;;;;;;;;;;;;;;16.45;100.00;101595.41;10498256;28;19924;-69
2023/08/13 04:47:30;;;;;;;;;;;;;;;16.35;100.00;101599.63;10498152;28;19928;-69
2023/08/13 04:52:32;;;;;;;;;;;;;;;16.15;100.00;101604.50;10497334;28;20339;-69
2023/08/13 04:57:34;;;;;;;;;;;;;;;16.44;100.00;101598.16;10497745;28;19924;-69
2023/08/13 05:02:37;;;;;;;;;;;;;;;16.68;100.00;101588.50;10497871;28;20007;-69
2023/08/13 05:07:39;;;;;;;;;;;;;;;16.65;100.00;101587.88;10497526;28;20341;-70
2023/08/13 05:12:41;;;;;;;;;;;;;;;16.60;100.00;101595.28;10496968;28;20062;-70
2023/08/13 05:17:43;;;;;;;;;;;;;;;16.63;100.00;101595.91;10497548;28;19924;-69
2023/08/13 05:22:46;;;;;;;;;;;;;;;16.48;100.00;101597.00;10502398;28;19974;-70
2023/08/13 05:27:49;;;;;;;;;;;;;;;16.51;100.00;101602.06;10504701;28;19924;-70
2023/08/13 05:32:53;;;;;;;;;;;;;;;16.70;100.00;101607.75;10504718;28;20007;-70
2023/08/13 05:37:55;;;;;;;;;;;;;;;16.82;100.00;101606.03;10503685;28;19924;-70
2023/08/13 05:42:58;;;;;;;;;;;;;;;16.84;100.00;101608.56;10502355;28;20011;-70
2023/08/13 05:48:00;;;;;;;;;;;;;;;16.81;100.00;101608.78;10503266;28;20370;-70
2023/08/13 05:53:02;;;;;;;;;;;;;;;16.89;100.00;101609.97;10502503;28;19970;-70
2023/08/13 05:58:05;;;;;;;;;;;;;;;16.84;100.00;101616.50;10502743;28;19924;-70
2023/08/13 06:03:08;;;;;;;;;;;;;;;16.85;100.00;101613.78;10502691;28;19931;-70
2023/08/13 06:08:10;;;;;;;;;;;;;;;17.02;100.00;101615.22;10502530;28;19933;-70
2023/08/13 06:13:12;;;;;;;;;;;;;;;17.23;100.00;101614.63;10502802;28;19931;-70
2023/08/13 06:18:14;;;;;;;;;;;;;;;17.18;100.00;101624.69;10485102;28;19925;-70
2023/08/13 06:23:17;;;;;;;;;;;;;;;17.25;100.00;101632.09;10502516;28;19924;-71
2023/08/13 06:28:19;;;;;;;;;;;;;;;17.27;100.00;101621.41;10500593;28;20279;-70
2023/08/13 06:33:21;;;;;;;;;;;;;;;17.54;100.00;101626.47;10500266;28;19924;-70
2023/08/13 06:38:25;;;;;;;;;;;;;;;17.49;100.00;101617.19;10501363;28;20015;-70
2023/08/13 06:43:27;;;;;;;;;;;;;;;17.64;100.00;101624.81;10501751;28;19925;-70
2023/08/13 06:48:31;;;;;;;;;;;;;;;17.73;98.29;101623.28;10501453;28;19959;-70
2023/08/13 06:53:33;;;;;;;;;;;;;;;17.97;98.92;101622.44;10500029;28;19925;-70
2023/08/13 06:58:36;;;;;;;;;;;;;;;18.07;100.00;101631.41;10499097;28;20371;-71
2023/08/13 07:03:38;;;;;;;;;;;;;;;18.45;97.90;101635.53;10500844;28;19931;-70
2023/08/13 07:08:40;;;;;;;;;;;;;;;18.78;94.73;101627.72;10500685;28;19928;-70
2023/08/13 07:13:42;;;;;;;;;;;;;;;18.85;92.34;101623.66;10499728;28;20027;-70
2023/08/13 07:18:45;;;;;;;;;;;;;;;19.24;92.77;101624.06;10499651;28;20371;-70
2023/08/13 07:23:47;;;;;;;;;;;;;;;19.71;87.22;101624.63;10499451;28;20393;-70
2023/08/13 07:28:49;;;;;;;;;;;;;;;19.76;86.51;101618.97;10499605;28;19924;-70
2023/08/13 07:33:53;;;;;;;;;;;;;;;19.53;87.55;101624.34;10499053;28;19924;-70
2023/08/13 07:38:56;;;;;;;;;;;;;;;19.63;88.81;101629.72;10499634;28;19924;-70
2023/08/13 07:43:58;;;;;;;;;;;;;;;20.14;88.20;101629.03;10499076;28;19931;-70
2023/08/13 07:49:00;;;;;;;;;;;;;;;20.90;85.12;101615.41;10497529;28;20411;-70
2023/08/13 07:54:02;;;;;;;;;;;;;;;21.28;81.63;101611.16;10498504;28;19924;-70
2023/08/13 07:59:05;;;;;;;;;;;;;;;21.55;79.63;101601.63;10497213;28;20019;-68
2023/08/13 08:04:07;;;;;;;;;;;;;;;21.39;80.29;101598.69;10498950;28;19936;-70
2023/08/13 08:09:10;;;;;;;;;;;;;;;21.77;77.94;101599.66;10498198;28;19924;-69
2023/08/13 08:14:12;;;;;;;;;;;;;;;22.49;81.26;101600.09;10498842;28;19935;-68
2023/08/13 08:19:14;;;;;;;;;;;;;;;22.31;75.12;101611.53;10498658;28;19924;-68
2023/08/13 08:24:16;;;;;;;;;;;;;;;22.57;75.21;101598.34;10496820;28;19924;-68
2023/08/13 08:29:18;;;;;;;;;;;;;;;22.34;77.58;101605.91;10498437;28;19925;-69
2023/08/13 08:34:21;;;;;;;;;;;;;;;22.77;75.59;101591.09;10497753;28;19928;-68
2023/08/13 08:39:23;;;;;;;;;;;;;;;23.22;74.03;101592.13;10498216;28;19924;-69
2023/08/13 08:44:25;;;;;;;;;;;;;;;23.35;70.40;101594.38;10496997;28;19960;-69
2023/08/13 08:49:27;;;;;;;;;;;;;;;22.92;72.11;101598.63;10497904;28;19925;-69
2023/08/13 08:54:30;;;;;;;;;;;;;;;23.92;69.37;101596.72;10497196;28;19956;-69
2023/08/13 08:59:32;;;;;;;;;;;;;;;22.94;70.72;101594.78;10505154;28;20393;-69
2023/08/13 09:04:35;;;;;;;;;;;;;;;23.03;72.92;101595.72;10503895;28;20252;-69
2023/08/13 09:09:37;;;;;;;;;;;;;;;23.55;71.24;101587.06;10505268;28;20003;-69
2023/08/13 09:14:39;;;;;;;;;;;;;;;23.58;71.40;101600.13;10503321;28;20027;-69
2023/08/13 09:19:42;;;;;;;;;;;;;;;24.59;69.15;101578.22;10505003;28;19925;-69
2023/08/13 09:24:46;;;;;;;;;;;;;;;23.54;69.54;101577.38;10504173;28;19932;-68
2023/08/13 09:29:52;;;;;;;;;;;;;;;24.00;71.03;101575.38;10486642;28;20380;-68
2023/08/13 09:34:54;;;;;;;;;;;;;;;23.63;71.34;101570.25;10504510;28;19931;-68
2023/08/13 09:39:56;;;;;;;;;;;;;;;23.19;71.61;101563.88;10504311;28;19924;-68
2023/08/13 09:45:02;;;;;;;;;;;;;;;23.73;70.34;101562.97;10502293;28;19946;-69
2023/08/13 09:50:05;;;;;;;;;;;;;;;23.54;72.11;101558.66;10502067;28;20368;-69
2023/08/13 09:55:09;;;;;;;;;;;;;;;24.01;70.63;101547.66;10502548;28;19962;-69
2023/08/13 10:00:12;;;;;;;;;;;;;;;23.44;71.79;101545.41;10501545;28;19931;-68
2023/08/13 10:05:15;;;;;;;;;;;;;;;24.38;68.45;101541.16;10503268;28;19974;-69
2023/08/13 10:10:17;;;;;;;;;;;;;;;24.43;70.32;101525.47;10502258;28;19979;-69
2023/08/13 10:15:20;;;;;;;;;;;;;;;24.61;68.68;101524.53;10502341;28;19931;-69
2023/08/13 10:20:25;;;;;;;;;;;;;;;24.33;66.10;101521.25;10501012;28;19932;-68
2023/08/13 10:25:28;;;;;;;;;;;;;;;24.88;69.75;101525.28;10500762;28;19955;-69
2023/08/13 10:30:32;;;;;;;;;;;;;;;25.16;67.28;101518.59;10500559;28;19924;-69
2023/08/13 10:35:37;;;;;;;;;;;;;;;24.73;63.61;101522.38;10501522;28;19948;-70
2023/08/13 10:40:58;;;;;;;;;;;;;;;23.98;65.72;101520.41;10501297;28;20014;-69
2023/08/13 10:46:05;;;;;;;;;;;;;;;25.11;65.64;101512.06;10500366;28;19979;-69
2023/08/13 10:51:07;;;;;;;;;;;;;;;25.51;63.22;101505.91;10500672;28;20287;-69
2023/08/13 10:56:10;;;;;;;;;;;;;;;24.72;63.78;101510.03;10499343;28;19924;-69
2023/08/13 11:01:13;;;;;;;;;;;;;;;24.74;64.24;101505.34;10498927;28;19925;-69
2023/08/13 11:06:15;;;;;;;;;;;;;;;24.83;63.84;101509.69;10498987;28;20438;-69
2023/08/13 11:11:18;;;;;;;;;;;;;;;24.69;63.66;101507.66;10506830;22;19931;-64
2023/08/13 11:16:20;;;;;;;;;;;;;;;26.84;60.55;101497.19;10441350;28;20397;-64
2023/08/13 11:21:23;;;;;;;;;;;;;;;28.15;60.70;101497.03;10457679;28;20015;-65
2023/08/13 11:26:26;;;;;;;;;;;;;;;26.46;60.49;101494.41;10458731;28;20459;-65
2023/08/13 11:31:28;;;;;;;;;;;;;;;27.54;60.46;101499.88;10457894;28;19948;-64
2023/08/13 11:36:30;;;;;;;;;;;;;;;25.77;57.30;101497.66;10458471;28;20003;-64
2023/08/13 11:41:33;;;;;;;;;;;;;;;26.62;58.59;101492.63;10439930;28;19932;-64
2023/08/13 11:46:52;;;;;;;;;;;;;;;25.22;63.21;101491.16;10458432;28;19999;-64
2023/08/13 11:51:55;;;;;;;;;;;;;;;26.76;59.39;101497.25;10457203;28;19992;-64
2023/08/13 11:56:57;;;;;;;;;;;;;;;26.17;58.96;101497.72;10440125;28;20023;-64
2023/08/13 12:01:59;;;;;;;;;;;;;;;25.68;62.23;101490.63;10457319;28;19947;-64
2023/08/13 12:07:07;;;;;;;;;;;;;;;25.47;62.54;101487.63;10439881;28;19928;-64
2023/08/13 12:12:09;;;;;;;;;;;;;;;28.39;56.42;101486.97;10456675;28;19925;-65
2023/08/13 12:17:12;;;;;;;;;;;;;;;27.11;57.48;101480.72;10457615;28;20089;-64
2023/08/13 12:22:14;;;;;;;;;;;;;;;26.64;57.48;101482.56;10457269;28;19928;-64
2023/08/13 12:27:17;;;;;;;;;;;;;;;25.41;62.43;101473.06;10439473;28;19931;-65
2023/08/13 12:32:19;;;;;;;;;;;;;;;25.29;61.06;101480.63;10462966;28;19947;-65
2023/08/13 12:37:21;;;;;;;;;;;;;;;25.07;61.36;101481.28;10447604;28;19929;-65
2023/08/13 12:42:24;;;;;;;;;;;;;;;24.97;63.57;101476.06;10465177;28;19926;-65
2023/08/13 12:47:26;;;;;;;;;;;;;;;25.14;63.55;101480.44;10446625;28;20372;-65
2023/08/13 12:52:28;;;;;;;;;;;;;;;24.99;63.93;101474.06;10447024;28;19974;-65
2023/08/13 12:57:31;;;;;;;;;;;;;;;24.96;63.64;101469.03;10464933;28;20038;-65
2023/08/13 13:02:34;;;;;;;;;;;;;;;26.40;60.33;101462.88;10463740;28;20393;-65
2023/08/13 13:07:36;;;;;;;;;;;;;;;27.58;55.45;101450.06;10446917;28;19978;-65
2023/08/13 13:12:40;;;;;;;;;;;;;;;26.22;62.78;101448.88;10463521;28;19924;-65
2023/08/13 13:17:42;;;;;;;;;;;;;;;27.93;55.79;101442.31;10463208;28;20012;-65
2023/08/13 13:22:45;;;;;;;;;;;;;;;27.03;57.37;101449.38;10446164;28;19936;-65
2023/08/13 13:27:47;;;;;;;;;;;;;;;26.68;59.11;101449.81;10462773;28;19925;-65
2023/08/13 13:32:50;;;;;;;;;;;;;;;27.00;59.39;101450.59;10463212;28;19954;-65
2023/08/13 13:37:53;;;;;;;;;;;;;;;26.54;56.03;101441.66;10462702;28;19963;-65
2023/08/13 13:42:55;;;;;;;;;;;;;;;26.65;56.03;101444.81;10462312;28;19925;-65
2023/08/13 13:47:57;;;;;;;;;;;;;;;26.41;55.66;101440.41;10461990;28;19925;-66
2023/08/13 13:53:00;;;;;;;;;;;;;;;26.45;56.81;101432.81;10462379;28;19925;-66
2023/08/13 13:58:18;;;;;;;;;;;;;;;27.81;54.89;101425.75;10462302;28;19925;-65
2023/08/13 14:03:21;;;;;;;;;;;;;;;27.45;53.51;101431.03;10444352;28;20007;-65
2023/08/13 14:08:23;;;;;;;;;;;;;;;26.10;57.02;101419.75;10461848;28;20011;-65
2023/08/13 14:13:25;;;;;;;;;;;;;;;26.30;56.25;101430.06;10460827;28;20261;-65
2023/08/13 14:18:28;;;;;;;;;;;;;;;26.02;58.88;101419.78;10460842;28;20382;-65
2023/08/13 14:23:30;;;;;;;;;;;;;;;25.82;57.74;101421.19;10461236;28;20019;-65
2023/08/13 14:28:32;;;;;;;;;;;;;;;28.02;56.64;101416.94;10461045;28;20085;-65
2023/08/13 14:33:34;;;;;;;;;;;;;;;26.90;57.90;101416.91;10460773;28;19931;-66
2023/08/13 14:38:37;;;;;;;;;;;;;;;26.69;58.63;101403.13;10460030;28;19925;-65
2023/08/13 14:43:40;;;;;;;;;;;;;;;25.96;56.45;101407.09;10460641;28;19925;-66
2023/08/13 14:48:42;;;;;;;;;;;;;;;25.27;61.31;101399.56;10441964;28;20384;-65
2023/08/13 14:53:44;;;;;;;;;;;;;;;25.13;64.69;101392.19;10458764;28;20288;-65
2023/08/13 14:58:46;;;;;;;;;;;;;;;25.03;66.13;101397.72;10459879;28;19968;-66
2023/08/13 15:03:48;;;;;;;;;;;;;;;24.67;68.05;101392.69;10459004;28;20393;-65
2023/08/13 15:08:53;;;;;;;;;;;;;;;24.72;70.90;101394.88;10441235;28;19924;-65
2023/08/13 15:13:56;;;;;;;;;;;;;;;24.63;68.18;101394.06;10458588;28;19925;-65
2023/08/13 15:19:05;;;;;;;;;;;;;;;24.18;71.97;101398.78;10619622;27;19994;-65
2023/08/13 15:24:07;;;;;;;;;;;;;;;24.28;74.91;101393.28;10619797;27;19951;-66
2023/08/13 15:29:10;;;;;;;;;;;;;;;24.04;74.93;101394.03;10618468;28;20014;-65
2023/08/13 15:34:13;;;;;;;;;;;;;;;24.47;75.32;101392.97;10618848;27;20018;-65
2023/08/13 15:39:15;;;;;;;;;;;;;;;24.26;74.91;101392.63;10618041;28;19931;-66
2023/08/13 15:44:17;;;;;;;;;;;;;;;25.77;72.90;101385.00;10618385;27;20366;-65
2023/08/13 15:49:20;;;;;;;;;;;;;;;25.77;70.72;101390.38;10618805;27;20007;-66
2023/08/13 15:54:23;;;;;;;;;;;;;;;25.52;69.02;101391.44;10618556;27;19927;-65
2023/08/13 15:59:26;;;;;;;;;;;;;;;25.28;68.49;101390.50;10618363;27;19924;-65
2023/08/13 16:04:28;;;;;;;;;;;;;;;25.07;71.55;101393.72;10617549;27;19924;-65
2023/08/13 16:09:31;;;;;;;;;;;;;;;24.84;71.92;101391.69;10616362;28;20379;-66
2023/08/13 16:14:33;;;;;;;;;;;;;;;24.84;71.45;101399.72;10617466;28;19930;-65
2023/08/13 16:19:37;;;;;;;;;;;;;;;24.05;70.39;101401.06;10617698;27;20018;-65
2023/08/13 16:24:40;;;;;;;;;;;;;;;23.98;70.83;101405.41;10616730;27;19927;-65
2023/08/13 16:29:42;;;;;;;;;;;;;;;23.42;73.01;101403.09;10591937;28;19928;-65
2023/08/13 16:34:44;;;;;;;;;;;;;;;23.78;71.55;101397.59;10587956;28;20010;-66
2023/08/13 16:39:46;;;;;;;;;;;;;;;24.55;69.14;101410.94;10588448;28;19930;-66
2023/08/13 16:44:49;;;;;;;;;;;;;;;24.19;68.62;101404.97;10588310;28;19930;-66
2023/08/13 16:49:51;;;;;;;;;;;;;;;23.07;71.02;101398.69;10588121;28;20014;-66
2023/08/13 16:55:02;;;;;;;;;;;;;;;23.43;71.75;101401.25;10587891;28;19927;-66
2023/08/13 17:00:10;;;;;;;;;;;;;;;23.78;70.47;101410.13;10586074;28;20010;-65
2023/08/13 17:05:12;;;;;;;;;;;;;;;23.40;71.25;101402.38;10585695;28;20294;-66
2023/08/13 17:10:14;;;;;;;;;;;;;;;22.66;74.08;101404.47;10586125;28;20019;-66
2023/08/13 17:15:17;;;;;;;;;;;;;;;22.54;75.03;101416.38;10586505;28;19924;-66
2023/08/13 17:20:26;;;;;;;;;;;;;;;22.02;76.65;101415.13;10586886;28;19924;-67
2023/08/13 17:25:28;;;;;;;;;;;;;;;21.85;78.78;101398.06;10586020;28;19930;-66
2023/08/13 17:30:30;;;;;;;;;;;;;;;22.16;78.53;101423.59;10585840;28;19930;-66
2023/08/13 17:35:33;;;;;;;;;;;;;;;21.83;79.59;101420.53;10585517;28;20290;-67
2023/08/13 17:40:35;;;;;;;;;;;;;;;21.96;79.92;101426.38;10584433;28;19930;-66
2023/08/13 17:45:39;;;;;;;;;;;;;;;21.95;81.16;101434.50;10585188;28;20389;-66
2023/08/13 17:50:42;;;;;;;;;;;;;;;22.11;80.19;101431.19;10585665;28;19924;-66
2023/08/13 17:55:44;;;;;;;;;;;;;;;22.11;79.45;101434.72;10584696;28;19923;-66
2023/08/13 18:00:46;;;;;;;;;;;;;;;22.24;78.38;101429.88;10584581;28;20398;-66
2023/08/13 18:05:48;;;;;;;;;;;;;;;22.16;82.29;101429.78;10584897;28;19955;-66
2023/08/13 18:10:51;;;;;;;;;;;;;;;22.08;81.52;101425.16;10584047;28;20268;-66
2023/08/13 18:15:56;;;;;;;;;;;;;;;21.83;84.48;101425.84;10583740;28;19927;-67
2023/08/13 18:20:58;;;;;;;;;;;;;;;21.55;85.80;101424.97;10582634;28;19973;-66
2023/08/13 18:26:00;;;;;;;;;;;;;;;21.47;85.44;101428.38;10584192;28;19930;-67
2023/08/13 18:31:03;;;;;;;;;;;;;;;21.18;88.99;101439.03;10583405;28;20018;-66
2023/08/13 18:36:06;;;;;;;;;;;;;;;20.92;89.42;101444.94;10582847;28;19928;-66
2023/08/13 18:41:08;;;;;;;;;;;;;;;20.79;94.66;101442.53;10583090;28;20394;-66
2023/08/13 18:46:10;;;;;;;;;;;;;;;20.58;95.55;101454.09;10583584;28;20006;-66
2023/08/13 18:51:13;;;;;;;;;;;;;;;20.39;99.20;101452.25;10582046;28;19927;-66
2023/08/13 18:56:15;;;;;;;;;;;;;;;20.29;98.03;101453.19;10582540;28;20381;-66
2023/08/13 19:01:17;;;;;;;;;;;;;;;19.90;100.00;101451.22;10583135;28;19930;-66
2023/08/13 19:06:19;;;;;;;;;;;;;;;19.82;100.00;101465.19;10583007;28;19927;-66
2023/08/13 19:11:22;;;;;;;;;;;;;;;19.67;100.00;101477.94;10582850;28;19923;-66
2023/08/13 19:16:24;;;;;;;;;;;;;;;19.53;100.00;101472.94;10582274;28;19931;-66
2023/08/13 19:21:27;;;;;;;;;;;;;;;19.28;100.00;101485.66;10582609;28;19923;-66
2023/08/13 19:26:29;;;;;;;;;;;;;;;19.25;100.00;101483.25;10581905;28;19928;-66
2023/08/13 19:31:31;;;;;;;;;;;;;;;19.31;100.00;101484.53;10582485;28;19923;-66
2023/08/13 19:36:33;;;;;;;;;;;;;;;19.22;100.00;101490.63;10580503;28;19963;-66
2023/08/13 19:41:36;;;;;;;;;;;;;;;19.14;100.00;101501.88;10582279;28;19923;-66
2023/08/13 19:46:38;;;;;;;;;;;;;;;19.30;100.00;101507.59;10580346;28;20285;-66
2023/08/13 19:51:40;;;;;;;;;;;;;;;19.16;100.00;101507.06;10581435;28;19924;-66
2023/08/13 19:56:43;;;;;;;;;;;;;;;19.02;100.00;101514.34;10580710;28;19924;-66
2023/08/13 20:01:45;;;;;;;;;;;;;;;18.98;100.00;101502.31;10583137;28;19930;-66
2023/08/13 20:06:48;;;;;;;;;;;;;;;18.81;100.00;101511.63;10588684;28;19967;-66
2023/08/13 20:11:50;;;;;;;;;;;;;;;18.74;100.00;101515.72;10587841;28;19930;-67
2023/08/13 20:16:52;;;;;;;;;;;;;;;18.72;100.00;101526.44;10588917;28;20006;-67
2023/08/13 20:21:56;;;;;;;;;;;;;;;18.51;100.00;101522.88;10587394;28;19931;-67
2023/08/13 20:26:58;;;;;;;;;;;;;;;18.42;100.00;101524.44;10587866;28;19971;-66
2023/08/13 20:32:00;;;;;;;;;;;;;;;18.25;100.00;101522.28;10587052;28;20290;-67
2023/08/13 20:37:03;;;;;;;;;;;;;;;18.18;100.00;101521.91;10588625;28;19930;-67
2023/08/13 20:42:05;;;;;;;;;;;;;;;18.37;100.00;101521.28;10588476;28;20006;-67
2023/08/13 20:47:08;;;;;;;;;;;;;;;18.15;100.00;101508.91;10588207;28;19924;-67
2023/08/13 20:52:10;;;;;;;;;;;;;;;17.99;100.00;101503.97;10587986;28;19923;-67
2023/08/13 20:57:13;;;;;;;;;;;;;;;18.11;100.00;101500.34;10587097;28;20286;-67
2023/08/13 21:02:15;;;;;;;;;;;;;;;17.94;100.00;101492.88;10586419;28;19923;-66
2023/08/13 21:07:17;;;;;;;;;;;;;;;17.88;100.00;101496.81;10586744;28;19924;-67
2023/08/13 21:12:20;;;;;;;;;;;;;;;17.63;100.00;101509.28;10586476;28;19946;-67
2023/08/13 21:17:22;;;;;;;;;;;;;;;17.46;100.00;101515.00;10586437;28;20006;-67
2023/08/13 21:22:24;;;;;;;;;;;;;;;17.55;100.00;101513.47;10584998;28;19923;-67
2023/08/13 21:27:26;;;;;;;;;;;;;;;17.53;100.00;101504.78;10585966;28;19946;-66
2023/08/13 21:32:29;;;;;;;;;;;;;;;17.62;100.00;101499.66;10585178;28;19923;-67
2023/08/13 21:37:31;;;;;;;;;;;;;;;17.52;100.00;101503.13;10586093;28;19924;-66
2023/08/13 21:42:34;;;;;;;;;;;;;;;17.51;100.00;101504.91;10584809;28;19927;-66
2023/08/13 21:47:36;;;;;;;;;;;;;;;17.49;100.00;101500.69;10583915;28;19977;-66
2023/08/13 21:52:38;;;;;;;;;;;;;;;17.41;100.00;101501.28;10584938;28;20340;-66
2023/08/13 21:57:40;;;;;;;;;;;;;;;17.35;100.00;101507.88;10583458;28;20371;-67
2023/08/13 22:02:43;;;;;;;;;;;;;;;17.38;100.00;101512.09;10584532;28;19924;-67
2023/08/13 22:07:46;;;;;;;;;;;;;;;17.24;100.00;101513.94;10584902;28;19938;-67
2023/08/13 22:12:48;;;;;;;;;;;;;;;17.06;100.00;101523.25;10584737;28;19974;-67
2023/08/13 22:17:51;;;;;;;;;;;;;;;17.12;100.00;101528.09;10510382;28;19931;-66
2023/08/13 22:22:54;;;;;;;;;;;;;;;16.82;100.00;101533.78;10500335;28;19966;-66
2023/08/13 22:27:56;;;;;;;;;;;;;;;16.96;100.00;101536.28;10499617;28;19924;-67
2023/08/13 22:32:59;;;;;;;;;;;;;;;16.97;100.00;101535.34;10499326;28;20295;-67
2023/08/13 22:38:03;;;;;;;;;;;;;;;17.07;100.00;101530.25;10499080;28;19924;-67
2023/08/13 22:43:05;;;;;;;;;;;;;;;17.13;100.00;101532.44;10499065;28;20367;-67
2023/08/13 22:48:07;;;;;;;;;;;;;;;17.10;100.00;101537.97;10498855;28;20020;-67
2023/08/13 22:53:10;;;;;;;;;;;;;;;16.80;100.00;101541.84;10498230;28;19924;-67
2023/08/13 22:58:12;;;;;;;;;;;;;;;16.71;100.00;101548.63;10498561;28;19925;-67
2023/08/13 23:03:14;;;;;;;;;;;;;;;16.65;100.00;101551.72;10499143;28;19928;-67
2023/08/13 23:08:16;;;;;;;;;;;;;;;16.76;100.00;101552.72;10498362;28;20295;-66
2023/08/13 23:13:19;;;;;;;;;;;;;;;16.72;100.00;101555.59;10531350;28;19929;-67
2023/08/13 23:18:21;;;;;;;;;;;;;;;16.56;100.00;101544.44;10560763;28;20361;-67
2023/08/13 23:23:23;;;;;;;;;;;;;;;16.60;100.00;101545.06;10581980;28;20340;-67
2023/08/13 23:28:26;;;;;;;;;;;;;;;16.60;100.00;101537.13;10552082;22;20003;-71
2023/08/13 23:33:28;;;;;;;;;;;;;;;16.53;100.00;101529.63;10496803;28;20015;-72
2023/08/13 23:38:30;;;;;;;;;;;;;;;16.51;100.00;101528.06;10502195;28;19924;-71
2023/08/13 23:43:32;;;;;;;;;;;;;;;16.74;100.00;101526.41;10506033;28;20317;-71
2023/08/13 23:48:35;;;;;;;;;;;;;;;16.73;100.00;101524.72;10505228;28;19929;-71
2023/08/13 23:53:37;;;;;;;;;;;;;;;16.82;100.00;101520.56;10487873;28;20389;-71
2023/08/13 23:58:39;;;;;;;;;;;;;;;16.72;100.00;101528.31;10487607;28;20303;-72
